Time;durP1;ratioP1;P1;durP2;ratioP2;P2;SDS_P1;SDS_P2;PMS_P1;PMS_P2;Temp;Humidity;BMP_temperature;BMP_pressure;BME280_temperature;BME280_humidity;BME280_pressure;Samples;Min_cycle;Max_cycle;Signal;HPM_P1;HPM_P2
2021/09/24 00:00:17;;;;;;;13.38;5.32;;;;;;;;;;5102132;28;20091;-89
2021/09/24 00:02:43;;;;;;;16.08;5.20;;;;;;;;;;5088418;28;20032;-89
2021/09/24 00:05:08;;;;;;;18.23;4.93;;;;;;;;;;5089346;28;20065;-89
2021/09/24 00:07:34;;;;;;;17.13;4.43;;;;;;;;;;5091544;28;20577;-88
2021/09/24 00:09:59;;;;;;;10.43;4.80;;;;;;;;;;5106885;28;20016;-88
2021/09/24 00:12:24;;;;;;;8.93;4.15;;;;;;;;;;5108566;28;20031;-89
2021/09/24 00:14:50;;;;;;;14.13;5.43;;;;;;;;;;5095544;28;20021;-89
2021/09/24 00:17:15;;;;;;;13.60;4.90;;;;;;;;;;5095710;28;20123;-89
2021/09/24 00:19:40;;;;;;;12.45;5.55;;;;;;;;;;5100158;28;20483;-89
2021/09/24 00:22:05;;;;;;;21.48;6.03;;;;;;;;;;5078241;28;20020;-89
2021/09/24 00:24:31;;;;;;;10.38;4.55;;;;;;;;;;5111766;28;20040;-89
2021/09/24 00:26:56;;;;;;;12.45;4.80;;;;;;;;;;5111786;28;20039;-89
2021/09/24 00:29:21;;;;;;;14.88;5.93;;;;;;;;;;5095454;28;20020;-89
2021/09/24 00:31:46;;;;;;;12.35;5.57;;;;;;;;;;5111702;28;20119;-89
2021/09/24 00:34:12;;;;;;;21.73;6.10;;;;;;;;;;5097234;28;20028;-89
2021/09/24 00:36:37;;;;;;;15.65;5.53;;;;;;;;;;5104135;28;20479;-89
2021/09/24 00:39:02;;;;;;;16.83;5.70;;;;;;;;;;5087953;28;20020;-89
2021/09/24 00:41:28;;;;;;;14.18;5.82;;;;;;;;;;5095802;28;20430;-90
2021/09/24 00:43:53;;;;;;;16.40;5.72;;;;;;;;;;5094839;28;20107;-90
2021/09/24 00:46:18;;;;;;;17.60;5.93;;;;;;;;;;5094182;28;20047;-89
2021/09/24 00:48:43;;;;;;;13.40;5.43;;;;;;;;;;5102158;28;20028;-89
2021/09/24 00:51:09;;;;;;;14.77;6.22;;;;;;;;;;5075849;28;20480;-88
2021/09/24 00:53:34;;;;;;;13.85;5.35;;;;;;;;;;5095556;28;20026;-90
2021/09/24 00:55:59;;;;;;;22.05;6.18;;;;;;;;;;5098395;28;20664;-89
2021/09/24 00:58:25;;;;;;;14.45;6.03;;;;;;;;;;5092734;28;20103;-89
2021/09/24 01:00:50;;;;;;;17.85;6.55;;;;;;;;;;5110647;28;20032;-89
2021/09/24 01:03:15;;;;;;;16.80;6.30;;;;;;;;;;5093672;28;20020;-89
2021/09/24 01:05:41;;;;;;;12.55;6.72;;;;;;;;;;5111146;28;20020;-90
2021/09/24 01:08:06;;;;;;;14.43;7.10;;;;;;;;;;5096611;28;20020;-89
2021/09/24 01:10:32;;;;;;;14.05;6.95;;;;;;;;;;5104374;28;20070;-89
2021/09/24 01:12:57;;;;;;;21.02;7.47;;;;;;;;;;5086491;28;20016;-89
2021/09/24 01:15:22;;;;;;;15.75;6.90;;;;;;;;;;5106261;28;20116;-89
2021/09/24 01:17:48;;;;;;;15.75;7.13;;;;;;;;;;5087798;28;20015;-89
2021/09/24 01:20:15;;;;;;;17.02;7.13;;;;;;;;;;5096267;28;20396;-89
2021/09/24 01:22:40;;;;;;;18.02;8.20;;;;;;;;;;5102087;28;20398;-89
2021/09/24 01:25:07;;;;;;;18.02;8.10;;;;;;;;;;5088763;28;20031;-89
2021/09/24 01:27:32;;;;;;;27.23;8.57;;;;;;;;;;5094596;28;20028;-89
2021/09/24 01:29:57;;;;;;;23.02;8.02;;;;;;;;;;5094825;28;20039;-89
2021/09/24 01:32:23;;;;;;;19.88;8.70;;;;;;;;;;5093322;28;20024;-89
2021/09/24 01:34:48;;;;;;;18.27;9.05;;;;;;;;;;5106301;28;20468;-89
2021/09/24 01:37:13;;;;;;;25.83;9.38;;;;;;;;;;5093479;28;20027;-89
2021/09/24 01:39:39;;;;;;;23.10;9.85;;;;;;;;;;5091671;28;20123;-89
2021/09/24 01:42:04;;;;;;;21.45;9.00;;;;;;;;;;5090111;28;20124;-90
2021/09/24 01:44:29;;;;;;;22.80;10.15;;;;;;;;;;5103085;28;20020;-89
2021/09/24 01:46:55;;;;;;;27.45;10.57;;;;;;;;;;5093057;28;20422;-89
2021/09/24 01:49:20;;;;;;;25.83;9.30;;;;;;;;;;5093056;28;20055;-89
2021/09/24 01:51:46;;;;;;;26.55;10.73;;;;;;;;;;5110174;28;20027;-89
2021/09/24 01:54:11;;;;;;;21.50;9.60;;;;;;;;;;5094526;28;20020;-89
2021/09/24 01:56:37;;;;;;;25.30;10.23;;;;;;;;;;5094245;28;20016;-89
2021/09/24 01:59:03;;;;;;;23.38;9.80;;;;;;;;;;5093291;28;20511;-89
2021/09/24 02:01:28;;;;;;;25.55;10.18;;;;;;;;;;5109736;28;20435;-89
2021/09/24 02:03:53;;;;;;;23.88;9.45;;;;;;;;;;5092787;28;20103;-89
2021/09/24 02:06:18;;;;;;;21.20;9.88;;;;;;;;;;5096086;28;20040;-89
2021/09/24 02:08:44;;;;;;;22.20;10.10;;;;;;;;;;5092456;28;20028;-89
2021/09/24 02:11:11;;;;;;;33.33;10.43;;;;;;;;;;5092664;28;20531;-89
2021/09/24 02:13:37;;;;;;;24.63;10.35;;;;;;;;;;5092735;28;20089;-89
2021/09/24 02:16:02;;;;;;;28.98;10.55;;;;;;;;;;5092662;28;20016;-89
2021/09/24 02:18:27;;;;;;;26.80;10.02;;;;;;;;;;5092292;28;20156;-89
2021/09/24 02:20:52;;;;;;;26.70;11.50;;;;;;;;;;5092977;28;20107;-89
2021/09/24 02:23:17;;;;;;;22.38;11.25;;;;;;;;;;5092763;28;20114;-89
2021/09/24 02:25:43;;;;;;;27.27;11.25;;;;;;;;;;5092420;28;20020;-89
2021/09/24 02:28:08;;;;;;;27.38;11.05;;;;;;;;;;5092493;28;20388;-89
2021/09/24 02:30:33;;;;;;;30.23;11.75;;;;;;;;;;5092239;28;20483;-89
2021/09/24 02:32:58;;;;;;;27.02;12.43;;;;;;;;;;5092662;28;20011;-89
2021/09/24 02:35:24;;;;;;;25.17;11.18;;;;;;;;;;5092491;28;20027;-89
2021/09/24 02:37:49;;;;;;;26.25;12.43;;;;;;;;;;5090244;28;20016;-89
2021/09/24 02:40:14;;;;;;;30.00;12.13;;;;;;;;;;5090504;28;20020;-89
2021/09/24 02:42:39;;;;;;;25.60;10.15;;;;;;;;;;5090792;28;20024;-89
2021/09/24 02:45:05;;;;;;;37.72;12.40;;;;;;;;;;5092066;28;20063;-89
2021/09/24 02:47:30;;;;;;;25.48;12.05;;;;;;;;;;5093547;28;20027;-89
2021/09/24 02:49:56;;;;;;;27.45;12.00;;;;;;;;;;5092435;28;20046;-89
2021/09/24 02:52:21;;;;;;;30.27;12.43;;;;;;;;;;5092436;28;20020;-89
2021/09/24 02:54:46;;;;;;;27.67;12.68;;;;;;;;;;5092028;28;20035;-90
2021/09/24 02:57:11;;;;;;;31.95;12.93;;;;;;;;;;5092261;28;20066;-89
2021/09/24 02:59:37;;;;;;;33.08;11.85;;;;;;;;;;5092255;28;20020;-90
2021/09/24 03:02:02;;;;;;;25.20;12.45;;;;;;;;;;5095277;28;20463;-89
2021/09/24 03:04:27;;;;;;;38.35;12.60;;;;;;;;;;5091757;28;20437;-89
2021/09/24 03:06:52;;;;;;;37.33;12.70;;;;;;;;;;5091919;28;20044;-90
2021/09/24 03:09:17;;;;;;;28.50;12.55;;;;;;;;;;5092240;28;20027;-89
2021/09/24 03:11:43;;;;;;;32.28;13.40;;;;;;;;;;5091885;28;20020;-89
2021/09/24 03:14:09;;;;;;;35.15;13.38;;;;;;;;;;5091999;28;20451;-89
2021/09/24 03:16:36;;;;;;;32.13;12.07;;;;;;;;;;5091998;28;20020;-89
2021/09/24 03:19:01;;;;;;;44.60;13.93;;;;;;;;;;5091940;28;20097;-89
2021/09/24 03:21:27;;;;;;;33.78;13.32;;;;;;;;;;5093289;28;20493;-89
2021/09/24 03:23:52;;;;;;;33.63;13.13;;;;;;;;;;5092007;28;20383;-89
2021/09/24 03:26:18;;;;;;;33.97;13.48;;;;;;;;;;5091919;28;20024;-89
2021/09/24 03:28:43;;;;;;;33.30;13.85;;;;;;;;;;5091906;28;20021;-89
2021/09/24 03:31:08;;;;;;;31.05;14.07;;;;;;;;;;5091143;28;20073;-89
2021/09/24 03:33:34;;;;;;;31.35;13.13;;;;;;;;;;5091879;28;20012;-89
2021/09/24 03:35:59;;;;;;;31.83;14.02;;;;;;;;;;5078628;28;20019;-89
2021/09/24 03:38:24;;;;;;;38.45;12.63;;;;;;;;;;5093138;28;20103;-90
2021/09/24 03:40:50;;;;;;;28.42;12.18;;;;;;;;;;5091968;28;20025;-90
2021/09/24 03:43:15;;;;;;;34.92;13.73;;;;;;;;;;5091944;28;20042;-89
2021/09/24 03:45:40;;;;;;;34.58;14.70;;;;;;;;;;5091133;28;20024;-89
2021/09/24 03:48:05;;;;;;;32.53;14.20;;;;;;;;;;5077526;28;20029;-89
2021/09/24 03:50:31;;;;;;;34.17;13.43;;;;;;;;;;5094145;28;20035;-89
2021/09/24 03:52:56;;;;;;;32.45;12.82;;;;;;;;;;5095725;28;20027;-90
2021/09/24 03:55:21;;;;;;;35.15;13.23;;;;;;;;;;5095525;28;20076;-89
2021/09/24 03:57:47;;;;;;;38.65;13.00;;;;;;;;;;5095337;28;20031;-89
2021/09/24 04:00:12;;;;;;;33.08;13.90;;;;;;;;;;5095224;28;20019;-90
2021/09/24 04:02:37;;;;;;;38.58;15.38;;;;;;;;;;5095079;28;20024;-89
2021/09/24 04:05:03;;;;;;;36.33;13.00;;;;;;;;;;5095078;28;20031;-89
2021/09/24 04:07:28;;;;;;;29.20;13.07;;;;;;;;;;5096318;28;20020;-89
2021/09/24 04:09:53;;;;;;;35.33;13.07;;;;;;;;;;5095251;28;20112;-89
2021/09/24 04:12:18;;;;;;;33.35;13.68;;;;;;;;;;5094795;28;20028;-89
2021/09/24 04:14:44;;;;;;;36.60;14.82;;;;;;;;;;5095189;28;20020;-90
2021/09/24 04:17:09;;;;;;;39.28;13.50;;;;;;;;;;5080675;28;20142;-89
2021/09/24 04:19:34;;;;;;;32.25;14.68;;;;;;;;;;5095187;28;20016;-89
2021/09/24 04:21:59;;;;;;;32.47;13.77;;;;;;;;;;5094752;28;20027;-89
2021/09/24 04:24:24;;;;;;;39.58;14.25;;;;;;;;;;5095891;28;20016;-90
2021/09/24 04:26:50;;;;;;;35.00;14.40;;;;;;;;;;5094792;28;20023;-89
2021/09/24 04:29:15;;;;;;;33.00;14.20;;;;;;;;;;5094803;28;20119;-89
2021/09/24 04:31:40;;;;;;;36.85;13.30;;;;;;;;;;5094930;28;20071;-89
2021/09/24 04:34:05;;;;;;;33.50;13.50;;;;;;;;;;5094831;28;20130;-89
2021/09/24 04:36:31;;;;;;;36.03;13.95;;;;;;;;;;5096010;28;20020;-89
2021/09/24 04:38:57;;;;;;;33.97;13.40;;;;;;;;;;5095855;28;20049;-89
2021/09/24 04:41:22;;;;;;;36.08;14.10;;;;;;;;;;5094318;28;20111;-90
2021/09/24 04:43:47;;;;;;;33.65;14.07;;;;;;;;;;5082032;28;20472;-89
2021/09/24 04:46:12;;;;;;;35.28;14.02;;;;;;;;;;5094078;28;20487;-89
2021/09/24 04:48:38;;;;;;;35.55;13.38;;;;;;;;;;5094677;28;20028;-89
2021/09/24 04:51:03;;;;;;;39.75;14.13;;;;;;;;;;5094417;28;20467;-89
2021/09/24 04:53:29;;;;;;;32.03;13.10;;;;;;;;;;5094372;28;20110;-89
2021/09/24 04:55:54;;;;;;;41.10;14.88;;;;;;;;;;5094323;28;20012;-90
2021/09/24 04:58:19;;;;;;;34.10;13.98;;;;;;;;;;5091715;28;20112;-90
2021/09/24 05:00:45;;;;;;;30.15;12.95;;;;;;;;;;5078332;28;20016;-89
2021/09/24 05:03:11;;;;;;;32.92;13.98;;;;;;;;;;5093901;28;20035;-89
2021/09/24 05:05:36;;;;;;;33.83;13.77;;;;;;;;;;5094235;28;20020;-89
2021/09/24 05:08:01;;;;;;;37.83;13.68;;;;;;;;;;5094102;28;20387;-90
2021/09/24 05:10:26;;;;;;;31.02;12.98;;;;;;;;;;5093799;28;20030;-89
2021/09/24 05:12:52;;;;;;;29.42;13.40;;;;;;;;;;5094140;28;20098;-89
2021/09/24 05:15:17;;;;;;;28.70;11.98;;;;;;;;;;5093992;28;20016;-90
2021/09/24 05:17:42;;;;;;;30.63;14.23;;;;;;;;;;5094123;28;20071;-90
2021/09/24 05:20:07;;;;;;;30.50;12.70;;;;;;;;;;5093678;28;20024;-90
2021/09/24 05:22:33;;;;;;;32.63;13.40;;;;;;;;;;5087463;28;20502;-90
2021/09/24 05:24:58;;;;;;;28.67;12.50;;;;;;;;;;5085317;28;20032;-89
2021/09/24 05:27:23;;;;;;;32.20;13.05;;;;;;;;;;5093694;28;20549;-89
2021/09/24 05:29:48;;;;;;;28.48;12.43;;;;;;;;;;5093671;28;20046;-89
2021/09/24 05:32:14;;;;;;;27.95;12.30;;;;;;;;;;5093517;28;20077;-90
2021/09/24 05:34:41;;;;;;;31.33;12.55;;;;;;;;;;5093465;28;20086;-89
2021/09/24 05:37:06;;;;;;;28.42;12.32;;;;;;;;;;5093273;28;20024;-90
2021/09/24 05:39:31;;;;;;;32.50;12.60;;;;;;;;;;5093276;28;20023;-90
2021/09/24 05:41:57;;;;;;;31.13;13.82;;;;;;;;;;5093639;28;20111;-89
2021/09/24 05:44:22;;;;;;;30.42;12.95;;;;;;;;;;5092993;28;20081;-89
2021/09/24 05:46:47;;;;;;;29.58;12.25;;;;;;;;;;5094583;28;20023;-89
2021/09/24 05:49:12;;;;;;;32.78;12.95;;;;;;;;;;5093249;28;20024;-89
2021/09/24 05:51:41;;;;;;;34.67;12.52;;;;;;;;;;5092119;28;20030;-89
2021/09/24 05:54:06;;;;;;;32.88;12.75;;;;;;;;;;5091358;28;20077;-89
2021/09/24 05:56:31;;;;;;;37.03;13.38;;;;;;;;;;5092770;28;20024;-88
2021/09/24 05:58:56;;;;;;;29.35;12.88;;;;;;;;;;5091658;28;20020;-89
2021/09/24 06:01:21;;;;;;;26.17;12.32;;;;;;;;;;5091571;28;20024;-88
2021/09/24 06:03:47;;;;;;;31.05;12.48;;;;;;;;;;5089649;28;20448;-88
2021/09/24 06:06:12;;;;;;;33.55;12.55;;;;;;;;;;5085294;28;20028;-88
2021/09/24 06:08:37;;;;;;;37.53;13.73;;;;;;;;;;5092394;28;20073;-88
2021/09/24 06:11:02;;;;;;;33.28;13.93;;;;;;;;;;5092258;28;20115;-89
2021/09/24 06:13:28;;;;;;;33.08;12.63;;;;;;;;;;5091750;28;20437;-88
2021/09/24 06:15:53;;;;;;;31.73;13.75;;;;;;;;;;5093482;28;20023;-89
2021/09/24 06:18:18;;;;;;;30.42;12.55;;;;;;;;;;5092468;28;20019;-88
2021/09/24 06:20:43;;;;;;;32.78;13.80;;;;;;;;;;5093427;28;20044;-88
2021/09/24 06:23:09;;;;;;;36.80;14.02;;;;;;;;;;5092482;28;20107;-88
2021/09/24 06:25:34;;;;;;;35.05;12.43;;;;;;;;;;5092191;28;20162;-88
2021/09/24 06:28:00;;;;;;;36.40;14.18;;;;;;;;;;5092313;28;20016;-88
2021/09/24 06:30:25;;;;;;;36.17;13.77;;;;;;;;;;5091861;28;20563;-88
2021/09/24 06:32:51;;;;;;;35.83;14.32;;;;;;;;;;5091935;28;20656;-88
2021/09/24 06:35:16;;;;;;;32.35;14.43;;;;;;;;;;5092012;28;20016;-88
2021/09/24 06:37:42;;;;;;;40.13;15.35;;;;;;;;;;5091947;28;20455;-88
2021/09/24 06:40:07;;;;;;;41.30;14.60;;;;;;;;;;5092499;28;20016;-88
2021/09/24 06:42:33;;;;;;;31.70;14.20;;;;;;;;;;5091992;28;20065;-89
2021/09/24 06:44:58;;;;;;;33.95;14.70;;;;;;;;;;5091674;28;20032;-88
2021/09/24 06:47:24;;;;;;;34.50;14.23;;;;;;;;;;5091764;28;20032;-88
2021/09/24 06:49:49;;;;;;;37.63;14.38;;;;;;;;;;5091925;28;20035;-89
2021/09/24 06:52:15;;;;;;;40.92;15.32;;;;;;;;;;5091695;28;20107;-88
2021/09/24 06:54:40;;;;;;;40.33;14.90;;;;;;;;;;5091426;28;20024;-88
2021/09/24 06:57:05;;;;;;;37.75;15.63;;;;;;;;;;5077903;28;20145;-88
2021/09/24 06:59:30;;;;;;;35.28;15.32;;;;;;;;;;5091684;28;20463;-88
2021/09/24 07:01:56;;;;;;;43.95;15.57;;;;;;;;;;5091711;28;20491;-88
2021/09/24 07:04:21;;;;;;;32.65;11.45;;;;;;;;;;5091780;28;20035;-88
2021/09/24 07:06:48;;;;;;;34.17;12.93;;;;;;;;;;5085754;28;20506;-88
2021/09/24 07:09:13;;;;;;;35.78;14.48;;;;;;;;;;5091937;28;20065;-88
2021/09/24 07:11:38;;;;;;;32.65;14.20;;;;;;;;;;5093047;28;20090;-88
2021/09/24 07:14:10;;;;;;;30.05;13.32;;;;;;;;;;5078773;28;20102;-88
2021/09/24 07:16:36;;;;;;;37.58;14.88;;;;;;;;;;5079001;28;20365;-88
2021/09/24 07:19:01;;;;;;;33.63;13.93;;;;;;;;;;5090343;28;20043;-88
2021/09/24 07:21:26;;;;;;;31.17;13.88;;;;;;;;;;5091298;28;20036;-88
2021/09/24 07:23:52;;;;;;;43.80;14.07;;;;;;;;;;5093283;28;20024;-88
2021/09/24 07:26:17;;;;;;;33.92;13.93;;;;;;;;;;5095749;28;20058;-89
2021/09/24 07:28:42;;;;;;;39.30;14.30;;;;;;;;;;5095735;28;20020;-88
2021/09/24 07:31:07;;;;;;;40.75;14.13;;;;;;;;;;5095723;28;20027;-88
2021/09/24 07:33:32;;;;;;;29.13;13.63;;;;;;;;;;5097062;28;20463;-88
2021/09/24 07:35:58;;;;;;;31.52;13.73;;;;;;;;;;5095626;28;20382;-89
2021/09/24 07:38:23;;;;;;;35.42;13.65;;;;;;;;;;5095636;28;20494;-88
2021/09/24 07:40:48;;;;;;;30.55;12.15;;;;;;;;;;5094721;28;20024;-88
2021/09/24 07:43:14;;;;;;;32.78;12.90;;;;;;;;;;5095792;28;20035;-88
2021/09/24 07:45:39;;;;;;;30.98;11.70;;;;;;;;;;5095395;28;20024;-88
2021/09/24 07:48:05;;;;;;;26.98;12.77;;;;;;;;;;5081114;28;20044;-88
2021/09/24 07:50:30;;;;;;;30.10;11.57;;;;;;;;;;5096449;28;20036;-88
2021/09/24 07:52:55;;;;;;;30.80;11.38;;;;;;;;;;5095470;28;20483;-88
2021/09/24 07:55:21;;;;;;;27.13;11.70;;;;;;;;;;5096336;28;20016;-89
2021/09/24 07:57:50;;;;;;;35.33;12.43;;;;;;;;;;5095518;28;20409;-88
2021/09/24 08:00:15;;;;;;;28.33;12.07;;;;;;;;;;5094863;28;20098;-88
2021/09/24 08:02:41;;;;;;;30.83;12.13;;;;;;;;;;5096635;28;20036;-88
2021/09/24 08:05:06;;;;;;;30.00;11.45;;;;;;;;;;5096403;28;20039;-88
2021/09/24 08:07:31;;;;;;;29.85;12.20;;;;;;;;;;5095015;28;20012;-88
2021/09/24 08:09:57;;;;;;;26.75;11.40;;;;;;;;;;5096064;28;20020;-89
2021/09/24 08:12:22;;;;;;;25.48;11.63;;;;;;;;;;5096217;28;20417;-89
2021/09/24 08:14:47;;;;;;;30.40;11.52;;;;;;;;;;5094630;28;20492;-88
2021/09/24 08:17:12;;;;;;;28.15;11.20;;;;;;;;;;5095902;28;20143;-89
2021/09/24 08:19:38;;;;;;;34.40;12.27;;;;;;;;;;5094989;28;20465;-89
2021/09/24 08:22:04;;;;;;;29.35;12.07;;;;;;;;;;5094691;28;20070;-88
2021/09/24 08:24:29;;;;;;;22.20;10.25;;;;;;;;;;5094698;28;20052;-88
2021/09/24 08:26:54;;;;;;;23.92;9.57;;;;;;;;;;5094101;28;20496;-89
2021/09/24 08:29:19;;;;;;;27.92;9.52;;;;;;;;;;5088669;28;20475;-88
2021/09/24 08:31:45;;;;;;;21.02;9.15;;;;;;;;;;5086120;28;20468;-88
2021/09/24 08:34:10;;;;;;;26.52;9.93;;;;;;;;;;5111093;28;20467;-88
2021/09/24 08:36:35;;;;;;;17.33;9.07;;;;;;;;;;5093849;28;20047;-88
2021/09/24 08:39:01;;;;;;;20.90;8.98;;;;;;;;;;5111404;28;20424;-88
2021/09/24 08:41:29;;;;;;;24.05;8.05;;;;;;;;;;5111661;28;20032;-88
2021/09/24 08:43:54;;;;;;;17.58;8.18;;;;;;;;;;5111607;28;20024;-88
2021/09/24 08:46:20;;;;;;;20.50;8.13;;;;;;;;;;5111298;28;20020;-88
2021/09/24 08:48:45;;;;;;;21.63;8.05;;;;;;;;;;5111391;28;20020;-88
2021/09/24 08:51:10;;;;;;;23.08;7.55;;;;;;;;;;5110564;28;20020;-88
2021/09/24 08:53:36;;;;;;;19.27;7.15;;;;;;;;;;5095125;28;20456;-88
2021/09/24 08:56:02;;;;;;;15.93;6.38;;;;;;;;;;5110959;28;20012;-88
2021/09/24 08:58:27;;;;;;;17.00;7.18;;;;;;;;;;5094796;28;20008;-88
2021/09/24 09:00:53;;;;;;;17.63;7.75;;;;;;;;;;5110973;28;20115;-88
2021/09/24 09:03:18;;;;;;;18.92;6.88;;;;;;;;;;5094070;28;20027;-88
2021/09/24 09:05:46;;;;;;;17.77;7.15;;;;;;;;;;5111272;28;20099;-88
2021/09/24 09:08:16;;;;;;;15.43;6.13;;;;;;;;;;5097119;28;20031;-88
2021/09/24 09:10:48;;;;;;;20.40;6.78;;;;;;;;;;5096573;28;20069;-88
2021/09/24 09:13:14;;;;;;;14.38;6.18;;;;;;;;;;5110451;28;20432;-89
2021/09/24 09:15:40;;;;;;;15.80;5.70;;;;;;;;;;5105272;28;20056;-88
2021/09/24 09:18:06;;;;;;;14.63;6.30;;;;;;;;;;5101733;28;20036;-89
2021/09/24 09:20:31;;;;;;;11.88;6.05;;;;;;;;;;5098788;28;20048;-88
2021/09/24 09:23:00;;;;;;;16.88;6.80;;;;;;;;;;5093578;28;20491;-88
2021/09/24 09:25:25;;;;;;;14.65;6.25;;;;;;;;;;5093518;28;20024;-88
2021/09/24 09:27:51;;;;;;;15.15;6.25;;;;;;;;;;5110758;28;20055;-89
2021/09/24 09:30:17;;;;;;;12.73;5.82;;;;;;;;;;5110242;28;20016;-89
2021/09/24 09:32:43;;;;;;;10.23;5.78;;;;;;;;;;5095875;28;20019;-89
2021/09/24 09:35:11;;;;;;;16.73;6.43;;;;;;;;;;5110679;28;20024;-89
2021/09/24 09:37:37;;;;;;;16.15;6.32;;;;;;;;;;5094493;28;20012;-88
2021/09/24 09:40:07;;;;;;;13.48;6.20;;;;;;;;;;5110165;28;20020;-89
2021/09/24 09:42:37;;;;;;;17.13;7.03;;;;;;;;;;5110137;28;20080;-88
2021/09/24 09:45:03;;;;;;;17.70;7.25;;;;;;;;;;5092687;28;20467;-88
2021/09/24 09:47:32;;;;;;;13.43;7.38;;;;;;;;;;5094181;28;20059;-88
2021/09/24 09:50:08;;;;;;;17.08;6.35;;;;;;;;;;5109747;28;20108;-88
2021/09/24 09:52:52;;;;;;;13.77;5.85;;;;;;;;;;5110025;28;20024;-88
2021/09/24 09:55:19;;;;;;;17.90;6.93;;;;;;;;;;5104682;28;20016;-89
2021/09/24 09:57:48;;;;;;;17.75;6.72;;;;;;;;;;5084531;28;20012;-89
2021/09/24 10:00:14;;;;;;;16.77;7.15;;;;;;;;;;5109817;28;20027;-89
2021/09/24 10:02:39;;;;;;;14.63;6.78;;;;;;;;;;5109883;28;20416;-88
2021/09/24 10:05:04;;;;;;;16.02;6.63;;;;;;;;;;5109649;28;20031;-88
2021/09/24 10:07:35;;;;;;;23.27;5.63;;;;;;;;;;5109886;28;20081;-88
2021/09/24 10:10:13;;;;;;;21.20;6.90;;;;;;;;;;5109776;28;20382;-87
2021/09/24 10:12:39;;;;;;;13.95;6.55;;;;;;;;;;5109727;28;20383;-88
2021/09/24 10:15:07;;;;;;;13.40;6.63;;;;;;;;;;5093799;28;20031;-88
2021/09/24 10:17:32;;;;;;;15.77;6.75;;;;;;;;;;5092599;28;20016;-89
2021/09/24 10:19:57;;;;;;;16.38;7.10;;;;;;;;;;5097135;28;20154;-88
2021/09/24 10:22:24;;;;;;;15.77;6.40;;;;;;;;;;5090984;28;20024;-89
2021/09/24 10:24:50;;;;;;;17.27;6.65;;;;;;;;;;5093926;28;20044;-88
2021/09/24 10:27:22;;;;;;;17.10;6.65;;;;;;;;;;5093569;28;20077;-88
2021/09/24 10:29:49;;;;;;;16.98;6.75;;;;;;;;;;5099938;28;20020;-89
2021/09/24 10:32:25;;;;;;;15.40;6.82;;;;;;;;;;5087888;28;20028;-88
2021/09/24 10:34:52;;;;;;;19.23;6.25;;;;;;;;;;5091813;28;20012;-89
2021/09/24 10:37:17;;;;;;;11.98;6.70;;;;;;;;;;5095061;28;20066;-88
2021/09/24 10:39:43;;;;;;;12.93;6.22;;;;;;;;;;5093489;28;20402;-88
2021/09/24 10:42:17;;;;;;;12.13;6.00;;;;;;;;;;5109309;28;20027;-89
2021/09/24 10:45:01;;;;;;;13.07;5.75;;;;;;;;;;5094012;28;20023;-88
2021/09/24 10:47:45;;;;;;;14.77;5.78;;;;;;;;;;5107424;28;20024;-88
2021/09/24 10:50:29;;;;;;;15.77;6.10;;;;;;;;;;5083569;28;20023;-89
2021/09/24 10:53:06;;;;;;;11.05;5.50;;;;;;;;;;5108863;28;20016;-89
2021/09/24 10:55:31;;;;;;;13.93;5.30;;;;;;;;;;5090152;28;20024;-89
2021/09/24 10:58:00;;;;;;;12.85;5.65;;;;;;;;;;5108314;28;20484;-89
2021/09/24 11:00:26;;;;;;;14.20;5.93;;;;;;;;;;5090922;28;20024;-89
2021/09/24 11:03:06;;;;;;;14.43;5.85;;;;;;;;;;5092873;28;20389;-88
2021/09/24 11:05:50;;;;;;;8.00;3.03;;;;;;;;;;5091494;28;20028;-89
2021/09/24 11:08:34;;;;;;;15.05;4.53;;;;;;;;;;5091407;28;20395;-87
2021/09/24 11:11:05;;;;;;;11.68;3.90;;;;;;;;;;5108432;28;20032;-88
2021/09/24 11:13:31;;;;;;;10.00;3.93;;;;;;;;;;5103885;28;20024;-88
2021/09/24 11:15:58;;;;;;;10.07;4.57;;;;;;;;;;5092914;28;20091;-88
2021/09/24 11:18:42;;;;;;;9.60;4.22;;;;;;;;;;5105959;28;20043;-88
2021/09/24 11:21:07;;;;;;;11.43;3.80;;;;;;;;;;5101315;28;20058;-88
2021/09/24 11:23:36;;;;;;;8.70;3.70;;;;;;;;;;5108494;28;20096;-88
2021/09/24 11:26:14;;;;;;;8.30;2.85;;;;;;;;;;5095266;28;20482;-89
2021/09/24 11:28:39;;;;;;;8.40;3.63;;;;;;;;;;5093446;28;20028;-88
2021/09/24 11:31:05;;;;;;;9.38;3.88;;;;;;;;;;5101515;28;20027;-89
2021/09/24 11:33:40;;;;;;;7.40;4.40;;;;;;;;;;5108061;28;20024;-88
2021/09/24 11:36:06;;;;;;;9.95;4.00;;;;;;;;;;5108433;28;20040;-88
2021/09/24 11:38:31;;;;;;;8.27;3.90;;;;;;;;;;5108169;28;20101;-88
2021/09/24 11:40:57;;;;;;;10.80;3.63;;;;;;;;;;5099035;28;20062;-88
2021/09/24 11:43:29;;;;;;;6.28;3.30;;;;;;;;;;5091254;28;20023;-88
2021/09/24 11:45:55;;;;;;;6.15;2.95;;;;;;;;;;5091434;28;20471;-89
2021/09/24 11:48:46;;;;;;;8.57;2.42;;;;;;;;;;5091853;28;20032;-89
2021/09/24 11:51:12;;;;;;;11.73;4.03;;;;;;;;;;5091009;28;20035;-89
2021/09/24 11:53:52;;;;;;;7.55;3.05;;;;;;;;;;5092565;28;20443;-88
2021/09/24 11:56:33;;;;;;;10.90;3.72;;;;;;;;;;5092125;28;20024;-88
2021/09/24 11:59:03;;;;;;;8.75;4.07;;;;;;;;;;5091203;28;20062;-89
2021/09/24 12:01:28;;;;;;;8.88;3.70;;;;;;;;;;5092195;28;20384;-88
2021/09/24 12:03:57;;;;;;;3.88;2.13;;;;;;;;;;5091194;28;20028;-89
2021/09/24 12:06:22;;;;;;;10.18;2.63;;;;;;;;;;5092602;28;20019;-89
2021/09/24 12:08:50;;;;;;;9.20;3.45;;;;;;;;;;5092046;28;20268;-88
2021/09/24 12:11:22;;;;;;;8.20;3.33;;;;;;;;;;5093494;28;20480;-89
2021/09/24 12:13:56;;;;;;;6.50;3.00;;;;;;;;;;5096474;28;20061;-89
2021/09/24 12:16:21;;;;;;;6.85;2.78;;;;;;;;;;5096151;28;20034;-89
2021/09/24 12:18:51;;;;;;;6.43;2.95;;;;;;;;;;5092244;28;20017;-88
2021/09/24 12:21:18;;;;;;;4.13;1.52;;;;;;;;;;5085624;28;20024;-89
2021/09/24 12:23:44;;;;;;;10.40;3.40;;;;;;;;;;5094799;28;20024;-88
2021/09/24 12:26:09;;;;;;;5.35;2.85;;;;;;;;;;5111670;28;20024;-88
2021/09/24 12:28:36;;;;;;;5.13;2.95;;;;;;;;;;5112102;28;20506;-88
2021/09/24 12:31:03;;;;;;;4.95;2.53;;;;;;;;;;5111315;28;20416;-88
2021/09/24 12:33:28;;;;;;;4.35;2.08;;;;;;;;;;5094413;28;20020;-88
2021/09/24 12:36:01;;;;;;;3.53;2.50;;;;;;;;;;5094080;28;20486;-89
2021/09/24 12:38:30;;;;;;;7.55;2.30;;;;;;;;;;5109656;28;20069;-88
2021/09/24 12:41:15;;;;;;;8.02;2.33;;;;;;;;;;5091111;28;20024;-89
2021/09/24 12:43:41;;;;;;;4.47;2.65;;;;;;;;;;5087527;28;20016;-89
2021/09/24 12:46:07;;;;;;;5.85;2.60;;;;;;;;;;5094290;28;20375;-89
2021/09/24 12:48:35;;;;;;;6.82;2.97;;;;;;;;;;5093975;28;20023;-89
2021/09/24 12:51:00;;;;;;;5.00;2.35;;;;;;;;;;5095397;28;20089;-89
2021/09/24 12:53:26;;;;;;;4.72;2.65;;;;;;;;;;5111281;28;20012;-88
2021/09/24 12:55:51;;;;;;;4.85;2.80;;;;;;;;;;5095718;28;20016;-88
2021/09/24 12:58:17;;;;;;;10.10;2.40;;;;;;;;;;5096918;28;20047;-89
2021/09/24 13:00:43;;;;;;;7.00;3.10;;;;;;;;;;5095201;28;20020;-89
2021/09/24 13:03:08;;;;;;;6.57;2.95;;;;;;;;;;5095633;28;20050;-89
2021/09/24 13:05:34;;;;;;;6.15;2.65;;;;;;;;;;5100214;28;20099;-89
2021/09/24 13:07:59;;;;;;;8.10;2.15;;;;;;;;;;5103252;28;20031;-89
2021/09/24 13:10:24;;;;;;;5.50;2.55;;;;;;;;;;5095006;28;20406;-89
2021/09/24 13:12:50;;;;;;;5.25;2.50;;;;;;;;;;5110475;28;20552;-89
2021/09/24 13:15:16;;;;;;;6.60;2.60;;;;;;;;;;5094585;28;20027;-88
2021/09/24 13:17:41;;;;;;;4.40;2.22;;;;;;;;;;5110572;28;20134;-88
2021/09/24 13:20:08;;;;;;;4.63;1.88;;;;;;;;;;5095177;28;20050;-89
2021/09/24 13:22:35;;;;;;;1.65;0.85;;;;;;;;;;5109812;28;20039;-89
2021/09/24 13:25:00;;;;;;;3.42;2.05;;;;;;;;;;5110894;28;20077;-89
2021/09/24 13:27:25;;;;;;;5.05;2.30;;;;;;;;;;5080283;28;20020;-89
2021/09/24 13:29:51;;;;;;;12.25;2.50;;;;;;;;;;5094628;28;20074;-89
2021/09/24 13:32:16;;;;;;;4.38;2.08;;;;;;;;;;5110374;28;20030;-87
2021/09/24 13:34:42;;;;;;;7.45;1.83;;;;;;;;;;5094431;28;20020;-88
2021/09/24 13:37:08;;;;;;;6.05;2.22;;;;;;;;;;5094784;28;20016;-88
2021/09/24 13:39:33;;;;;;;14.73;2.45;;;;;;;;;;5094380;28;20381;-87
2021/09/24 13:41:59;;;;;;;3.15;1.88;;;;;;;;;;5094193;28;20035;-87
2021/09/24 13:44:24;;;;;;;2.65;1.85;;;;;;;;;;5093260;28;20059;-88
2021/09/24 13:46:49;;;;;;;6.97;1.90;;;;;;;;;;5093310;28;20020;-88
2021/09/24 13:49:14;;;;;;;2.67;1.40;;;;;;;;;;5094690;28;20024;-88
2021/09/24 13:51:39;;;;;;;1.98;1.40;;;;;;;;;;5094611;28;20016;-88
2021/09/24 13:54:05;;;;;;;5.57;1.48;;;;;;;;;;5094698;28;20027;-87
2021/09/24 13:56:30;;;;;;;1.88;1.30;;;;;;;;;;5078883;28;20070;-88
2021/09/24 13:58:55;;;;;;;4.55;1.27;;;;;;;;;;5086058;28;20027;-88
2021/09/24 14:01:21;;;;;;;1.65;1.08;;;;;;;;;;5093271;28;20028;-88
2021/09/24 14:03:46;;;;;;;2.80;1.23;;;;;;;;;;5110159;28;20022;-88
2021/09/24 14:06:11;;;;;;;3.78;1.17;;;;;;;;;;5091270;28;20020;-88
2021/09/24 14:08:37;;;;;;;4.00;1.38;;;;;;;;;;5093075;28;20456;-88
2021/09/24 14:11:02;;;;;;;3.10;1.15;;;;;;;;;;5109788;28;20024;-87
2021/09/24 14:13:28;;;;;;;1.17;1.00;;;;;;;;;;5108802;28;20025;-87
2021/09/24 14:15:54;;;;;;;2.38;1.10;;;;;;;;;;5093115;28;20417;-88
2021/09/24 14:18:20;;;;;;;1.80;1.10;;;;;;;;;;5109905;28;20024;-88
2021/09/24 14:20:45;;;;;;;1.77;0.90;;;;;;;;;;5109842;28;20375;-88